Sto Camellia — D7LH — position and weather

sailwx.info

Track history (hours):
 
Tides and Currents Weather Stations Pressure Air Temp Water Temp Dewpoint Dewpoint Depression Visibility Wind Speed Wind Dir Waves Ship Positions

Sto Camellia

Last reported at 2016-Dec-04 19:33 UTC. Time now 2016-Dec-04 20:22 UTC.
Position N 31°57' E 120°02'.

Length 121 m; draft 8.8 m.

Type: Ship (hazmat cat B). MMSI: 440036000.

Date/timePositionNaut miles runAvg speedWind from/ knotsBaromVisibWave heightAir tempDewpointWater temp
2016-Dec-04 19:33N 31°57' E 120°02'0 0.0
2016-Dec-04 18:27N 31°57' E 120°02'0 0.0
2016-Dec-04 17:15N 31°57' E 120°02'0 0.0
2016-Dec-04 11:33N 31°58' E 120°02'1010.2
2016-Dec-04 10:33N 31°56' E 120°14'1313.1
2016-Dec-04 09:33N 32°02' E 120°28'2311.2
2016-Dec-04 07:28N 31°53' E 120°53'1112.0
2016-Dec-04 06:33N 31°46' E 121°04'1313.3
2016-Dec-04 05:33N 31°37' E 121°16'1212.4
2016-Dec-04 04:33N 31°29' E 121°26'9 8.7
2016-Dec-04 03:33N 31°24' E 121°34'1211.7
2016-Dec-04 02:33N 31°18' E 121°46'1010.5
2016-Dec-04 01:33N 31°15' E 121°58'  
Track history (hours):
 
Tides and Currents Weather Stations Pressure Air Temp Water Temp Dewpoint Dewpoint Depression Visibility Wind Speed Wind Dir Waves Ship Positions

Sto Camellia

Last reported at 2016-Dec-04 19:33 UTC. Time now 2016-Dec-04 20:22 UTC.
Position N 31°57' E 120°02'.

Length 121 m; draft 8.8 m.

Type: Ship (hazmat cat B). MMSI: 440036000.

Date/timePositionNaut miles runAvg speedWind from/ knotsBaromVisibWave heightAir tempDewpointWater temp
2016-Dec-04 19:33N 31°57' E 120°02'0 0.0
2016-Dec-04 18:27N 31°57' E 120°02'0 0.0
2016-Dec-04 17:15N 31°57' E 120°02'0 0.0
2016-Dec-04 11:33N 31°58' E 120°02'1010.2
2016-Dec-04 10:33N 31°56' E 120°14'1313.1
2016-Dec-04 09:33N 32°02' E 120°28'2311.2
2016-Dec-04 07:28N 31°53' E 120°53'1112.0
2016-Dec-04 06:33N 31°46' E 121°04'1313.3
2016-Dec-04 05:33N 31°37' E 121°16'1212.4
2016-Dec-04 04:33N 31°29' E 121°26'9 8.7
2016-Dec-04 03:33N 31°24' E 121°34'1211.7
2016-Dec-04 02:33N 31°18' E 121°46'1010.5
2016-Dec-04 01:33N 31°15' E 121°58'  

Dump ship's entire track history